createdAt,value
2022-10-03T00:00:23.290Z,78.78
2022-10-03T00:03:09.562Z,78.38
2022-10-03T00:06:15.353Z,78.71
2022-10-03T00:09:01.850Z,78.55
2022-10-03T00:11:53.125Z,78.59
2022-10-03T00:14:35.416Z,78.44
2022-10-03T00:17:20.236Z,78.72
2022-10-03T00:19:56.620Z,78.42
2022-10-03T00:22:47.045Z,78.57
2022-10-03T00:26:27.973Z,78.44
2022-10-03T00:29:10.044Z,77.90
2022-10-03T00:31:56.333Z,77.61
2022-10-03T00:34:35.287Z,78.15
2022-10-03T00:37:21.051Z,77.74
2022-10-03T00:40:06.886Z,77.81
2022-10-03T00:42:56.558Z,77.72
2022-10-03T00:45:59.639Z,77.96
2022-10-03T00:49:15.339Z,77.63
2022-10-03T00:52:10.411Z,77.52
2022-10-03T00:54:58.929Z,77.48
2022-10-03T00:57:51.135Z,76.73
2022-10-03T01:00:27.096Z,76.82
2022-10-03T01:03:09.606Z,77.02
2022-10-03T01:05:48.383Z,76.93
2022-10-03T01:08:57.390Z,77.03
2022-10-03T01:11:36.377Z,76.94
2022-10-03T01:14:16.007Z,77.03
2022-10-03T01:16:45.918Z,76.93
2022-10-03T01:19:36.650Z,76.80
2022-10-03T01:22:41.443Z,77.10
2022-10-03T01:25:20.219Z,76.88
2022-10-03T01:28:05.779Z,76.87
2022-10-03T01:30:49.063Z,76.70
2022-10-03T01:33:24.328Z,76.59
2022-10-03T01:35:56.906Z,76.21
2022-10-03T01:38:54.031Z,76.57
2022-10-03T01:41:26.630Z,76.52
2022-10-03T01:44:02.394Z,76.38
2022-10-03T01:46:57.197Z,76.58
2022-10-03T01:49:32.001Z,76.46
2022-10-03T01:52:15.448Z,76.43
2022-10-03T01:54:46.763Z,76.08
2022-10-03T01:57:26.343Z,75.86
2022-10-03T01:59:59.088Z,76.01
2022-10-03T02:02:34.225Z,75.89
2022-10-03T02:05:35.968Z,75.95
2022-10-03T02:08:22.816Z,76.15
2022-10-03T02:11:08.821Z,76.19
2022-10-03T02:13:53.328Z,76.70
2022-10-03T02:16:45.166Z,76.57
2022-10-03T02:19:30.210Z,76.80
2022-10-03T02:22:00.889Z,77.11
2022-10-03T02:24:27.809Z,76.72
2022-10-03T02:27:28.456Z,76.79
2022-10-03T02:30:16.689Z,76.76
2022-10-03T02:33:08.299Z,76.74
2022-10-03T02:35:50.201Z,76.84
2022-10-03T02:38:44.894Z,76.71
2022-10-03T02:41:41.079Z,76.30
2022-10-03T02:44:50.441Z,76.45
2022-10-03T02:47:35.929Z,76.55
2022-10-03T02:50:40.413Z,76.12
2022-10-03T02:53:28.103Z,76.49
2022-10-03T02:56:36.478Z,76.79
2022-10-03T02:59:34.074Z,77.12
2022-10-03T03:02:29.662Z,76.92
2022-10-03T03:05:34.947Z,76.37
2022-10-03T03:08:12.583Z,76.78
2022-10-03T03:11:00.867Z,76.28
2022-10-03T03:13:59.472Z,76.14
2022-10-03T03:16:42.709Z,76.20
2022-10-03T03:19:29.246Z,76.29
2022-10-03T03:22:11.376Z,76.43
2022-10-03T03:25:02.810Z,76.39
2022-10-03T03:27:41.620Z,76.27
2022-10-03T03:30:13.424Z,76.40
2022-10-03T03:33:05.919Z,76.20
2022-10-03T03:35:52.126Z,76.41
2022-10-03T03:38:36.389Z,76.32
2022-10-03T03:41:32.027Z,76.75
2022-10-03T03:44:28.095Z,76.85
2022-10-03T03:47:14.235Z,76.94
2022-10-03T03:50:06.971Z,77.45
2022-10-03T03:52:42.966Z,77.76
2022-10-03T03:55:35.981Z,78.02
2022-10-03T03:58:09.733Z,78.49
2022-10-03T04:00:46.501Z,78.97
2022-10-03T04:03:39.677Z,78.73
2022-10-03T04:06:06.670Z,79.27
2022-10-03T04:09:01.585Z,79.91
2022-10-03T04:11:54.685Z,79.54
2022-10-03T04:14:57.699Z,80.24
2022-10-03T04:18:27.988Z,80.43
2022-10-03T04:21:07.403Z,80.93
2022-10-03T04:24:09.352Z,80.64
2022-10-03T04:26:59.937Z,80.84
2022-10-03T04:30:08.237Z,81.40
2022-10-03T04:32:57.658Z,82.04
2022-10-03T04:35:48.951Z,81.93
2022-10-03T04:38:21.806Z,81.85
2022-10-03T04:40:48.721Z,81.99
2022-10-03T04:43:44.137Z,81.88
2022-10-03T04:46:27.898Z,81.85
2022-10-03T04:49:16.421Z,82.04
2022-10-03T04:52:03.971Z,81.60
2022-10-03T04:54:57.554Z,81.61
2022-10-03T04:57:30.810Z,81.62
2022-10-03T05:00:13.081Z,81.83
2022-10-03T05:02:46.719Z,81.64
2022-10-03T05:05:22.243Z,81.04
2022-10-03T05:08:29.467Z,81.87
2022-10-03T05:11:08.515Z,81.78
2022-10-03T05:13:50.807Z,82.25
2022-10-03T05:16:31.205Z,82.43
2022-10-03T05:19:37.242Z,82.91
2022-10-03T05:22:16.985Z,83.17
2022-10-03T05:24:56.364Z,83.17
2022-10-03T05:27:34.564Z,83.04
2022-10-03T05:30:14.598Z,83.12
2022-10-03T05:33:07.699Z,83.51
2022-10-03T05:35:44.538Z,83.29
2022-10-03T05:38:47.338Z,83.93
2022-10-03T05:41:17.192Z,84.03
2022-10-03T05:44:15.609Z,83.80
2022-10-03T05:46:48.543Z,83.45
2022-10-03T05:49:42.410Z,83.29
2022-10-03T05:52:22.504Z,83.20
2022-10-03T05:55:22.311Z,83.40
2022-10-03T05:57:58.675Z,83.24
2022-10-03T06:00:30.915Z,83.59
2022-10-03T06:03:32.150Z,83.07
2022-10-03T06:06:34.682Z,82.82
2022-10-03T06:09:20.089Z,82.71
2022-10-03T06:11:55.820Z,83.07
2022-10-03T06:14:35.540Z,82.82
2022-10-03T06:17:20.775Z,82.94
2022-10-03T06:20:06.328Z,82.77
2022-10-03T06:22:40.312Z,82.37
2022-10-03T06:25:16.259Z,82.38
2022-10-03T06:28:02.852Z,81.89
2022-10-03T06:30:39.116Z,82.25
2022-10-03T06:33:50.969Z,81.55
2022-10-03T06:36:45.871Z,81.57
2022-10-03T06:39:31.200Z,81.16
2022-10-03T06:42:35.358Z,81.13
2022-10-03T06:45:05.430Z,81.18
2022-10-03T06:47:47.982Z,81.06
2022-10-03T06:50:45.917Z,80.89
2022-10-03T06:53:44.307Z,80.80
2022-10-03T06:56:32.840Z,80.79
2022-10-03T06:59:18.096Z,81.08
2022-10-03T07:01:54.626Z,80.95
2022-10-03T07:04:55.426Z,80.47
2022-10-03T07:07:46.220Z,81.21
2022-10-03T07:10:42.179Z,81.34
2022-10-03T07:13:42.785Z,81.55
2022-10-03T07:16:47.486Z,82.58
2022-10-03T07:19:42.971Z,82.33
2022-10-03T07:22:37.489Z,82.68
2022-10-03T07:25:33.663Z,82.72
2022-10-03T07:28:31.623Z,83.02
2022-10-03T07:31:22.253Z,83.09
2022-10-03T07:34:23.167Z,82.73
2022-10-03T07:37:41.628Z,82.84
2022-10-03T07:40:59.110Z,82.68
2022-10-03T07:43:52.119Z,82.58
2022-10-03T07:46:54.242Z,82.69
2022-10-03T07:49:45.757Z,82.50
2022-10-03T07:52:35.898Z,81.78
2022-10-03T07:55:27.313Z,81.73
2022-10-03T07:58:26.840Z,81.91
2022-10-03T08:01:17.900Z,81.72
2022-10-03T08:04:03.582Z,81.42
2022-10-03T08:06:43.783Z,80.98
2022-10-03T08:09:41.546Z,79.69
2022-10-03T08:12:31.945Z,79.41
2022-10-03T08:15:22.767Z,78.91
2022-10-03T08:18:28.778Z,78.73
2022-10-03T08:20:59.336Z,78.17
2022-10-03T08:23:44.858Z,78.47
2022-10-03T08:26:39.929Z,78.04
2022-10-03T08:30:03.370Z,77.56
2022-10-03T08:32:49.045Z,77.72
2022-10-03T08:35:31.034Z,77.28
2022-10-03T08:38:48.747Z,77.69
2022-10-03T08:41:43.053Z,78.43
2022-10-03T08:44:29.593Z,78.53
2022-10-03T08:47:39.554Z,78.15
2022-10-03T08:50:31.470Z,78.46
2022-10-03T08:53:24.794Z,78.06
2022-10-03T08:56:16.422Z,77.47
2022-10-03T08:59:07.769Z,77.07
2022-10-03T09:02:12.586Z,76.10
2022-10-03T09:04:51.739Z,76.02
2022-10-03T09:07:51.315Z,76.24
2022-10-03T09:10:44.686Z,76.30
2022-10-03T09:13:20.717Z,76.36
2022-10-03T09:16:06.052Z,75.63
2022-10-03T09:18:59.543Z,76.04
2022-10-03T09:21:37.456Z,76.53
2022-10-03T09:24:29.309Z,77.00
2022-10-03T09:26:59.159Z,77.10
2022-10-03T09:29:57.032Z,76.86
2022-10-03T09:32:44.685Z,76.96
2022-10-03T09:35:36.516Z,77.43
2022-10-03T09:38:24.381Z,77.03
2022-10-03T09:41:16.270Z,76.72
2022-10-03T09:43:43.174Z,78.16
2022-10-03T09:46:46.212Z,78.17
2022-10-03T09:49:46.322Z,78.91
2022-10-03T09:52:36.441Z,80.19
2022-10-03T09:55:13.062Z,80.59
2022-10-03T09:57:49.860Z,81.06
2022-10-03T10:00:17.048Z,80.79
2022-10-03T10:03:02.504Z,80.24
2022-10-03T10:06:31.641Z,80.07
2022-10-03T10:09:19.961Z,79.71
2022-10-03T10:12:10.234Z,79.41
2022-10-03T10:14:37.032Z,79.88
2022-10-03T10:17:31.767Z,80.03
2022-10-03T10:20:01.486Z,79.90
2022-10-03T10:23:03.603Z,79.73
2022-10-03T10:25:55.334Z,79.70
2022-10-03T10:28:47.176Z,79.42
2022-10-03T10:31:32.743Z,79.63
2022-10-03T10:34:16.448Z,79.64
2022-10-03T10:37:13.915Z,79.32
2022-10-03T10:40:21.039Z,79.23
2022-10-03T10:43:32.222Z,79.28
2022-10-03T10:46:25.647Z,79.02
2022-10-03T10:49:30.305Z,78.98
2022-10-03T10:52:39.358Z,79.23
2022-10-03T10:55:43.983Z,79.71
2022-10-03T10:58:45.644Z,79.49
2022-10-03T11:01:30.562Z,79.36
2022-10-03T11:04:35.314Z,78.83
2022-10-03T11:07:29.096Z,78.47
2022-10-03T11:10:01.970Z,78.03
2022-10-03T11:12:47.094Z,79.19
2022-10-03T11:15:23.254Z,80.01
2022-10-03T11:18:08.617Z,79.71
2022-10-03T11:20:57.565Z,79.42
2022-10-03T11:23:46.648Z,78.57
2022-10-03T11:26:40.927Z,77.98
2022-10-03T11:29:41.356Z,77.50
2022-10-03T11:33:02.251Z,76.11
2022-10-03T11:36:01.684Z,76.18
2022-10-03T11:38:34.917Z,74.99
2022-10-03T11:41:20.683Z,74.05
2022-10-03T11:43:59.552Z,73.95
2022-10-03T11:47:02.790Z,71.77
2022-10-03T11:49:43.542Z,70.06
2022-10-03T11:52:32.478Z,66.88
2022-10-03T11:55:24.199Z,65.93
2022-10-03T11:58:34.445Z,65.82
2022-10-03T12:01:04.178Z,65.22
2022-10-03T12:03:43.755Z,64.97
2022-10-03T12:06:55.866Z,65.70
2022-10-03T12:09:25.615Z,63.22
2022-10-03T12:12:01.664Z,60.80
2022-10-03T12:14:29.445Z,62.22
2022-10-03T12:17:00.417Z,61.68
2022-10-03T12:19:49.675Z,59.38
2022-10-03T12:22:33.671Z,58.81
2022-10-03T12:25:31.390Z,58.38
2022-10-03T12:28:24.420Z,56.20
2022-10-03T12:31:07.047Z,56.77
2022-10-03T12:34:00.247Z,57.54
2022-10-03T12:36:54.380Z,57.12
2022-10-03T12:40:05.084Z,56.54
2022-10-03T12:43:01.791Z,56.04
2022-10-03T12:45:47.835Z,56.12
2022-10-03T12:48:27.002Z,56.24
2022-10-03T12:51:36.571Z,56.35
2022-10-03T12:54:16.162Z,55.11
2022-10-03T12:57:01.027Z,55.45
2022-10-03T12:59:42.575Z,54.92
2022-10-03T13:02:35.750Z,54.31
2022-10-03T13:05:22.239Z,54.65
2022-10-03T13:08:00.843Z,54.23
2022-10-03T13:10:45.986Z,53.88
2022-10-03T13:13:19.601Z,52.12
2022-10-03T13:16:06.358Z,51.33
2022-10-03T13:18:54.058Z,51.02
2022-10-03T13:21:45.609Z,50.28
2022-10-03T13:24:20.874Z,50.65
2022-10-03T13:26:53.474Z,48.77
2022-10-03T13:29:30.490Z,50.65
2022-10-03T13:32:01.826Z,49.70
2022-10-03T13:34:34.566Z,48.56
2022-10-03T13:37:10.349Z,48.77
2022-10-03T13:40:04.939Z,48.97
2022-10-03T13:42:41.264Z,48.91
2022-10-03T13:45:25.858Z,47.43
2022-10-03T13:48:00.373Z,47.49
2022-10-03T13:50:31.331Z,47.79
2022-10-03T13:53:04.128Z,47.50
2022-10-03T13:55:55.065Z,47.49
2022-10-03T13:58:33.557Z,48.09
2022-10-03T14:01:38.008Z,48.76
2022-10-03T14:04:08.060Z,48.96
2022-10-03T14:06:44.211Z,48.17
2022-10-03T14:09:38.640Z,47.51
2022-10-03T14:12:50.740Z,47.76
2022-10-03T14:15:41.605Z,48.30
2022-10-03T14:18:08.548Z,47.79
2022-10-03T14:21:03.773Z,47.79
2022-10-03T14:23:35.590Z,48.74
2022-10-03T14:26:13.362Z,48.64
2022-10-03T14:29:04.740Z,47.99
2022-10-03T14:31:57.024Z,48.55
2022-10-03T14:34:55.770Z,49.35
2022-10-03T14:37:33.354Z,49.83
2022-10-03T14:40:16.149Z,49.76
2022-10-03T14:43:11.012Z,48.45
2022-10-03T14:45:44.453Z,48.49
2022-10-03T14:48:33.728Z,49.30
2022-10-03T14:51:21.421Z,50.41
2022-10-03T14:54:23.332Z,49.92
2022-10-03T14:56:52.707Z,49.92
2022-10-03T14:59:23.968Z,50.26
2022-10-03T15:01:55.155Z,50.23
2022-10-03T15:04:29.211Z,50.24
2022-10-03T15:07:00.673Z,50.40
2022-10-03T15:09:40.577Z,50.45
2022-10-03T15:12:15.858Z,50.79
2022-10-03T15:14:49.915Z,51.05
2022-10-03T15:17:27.703Z,50.76
2022-10-03T15:19:58.311Z,51.34
2022-10-03T15:22:40.478Z,50.26
2022-10-03T15:25:18.478Z,50.09
2022-10-03T15:27:50.255Z,50.41
2022-10-03T15:30:31.932Z,49.59
2022-10-03T15:33:11.230Z,50.41
2022-10-03T15:35:42.370Z,50.38
2022-10-03T15:38:17.142Z,50.44
2022-10-03T15:40:52.668Z,50.82
2022-10-03T15:43:27.759Z,51.25
2022-10-03T15:45:58.416Z,51.53
2022-10-03T15:48:28.414Z,51.73
2022-10-03T15:50:59.291Z,52.46
2022-10-03T15:53:36.750Z,52.22
2022-10-03T15:56:19.390Z,53.41
2022-10-03T15:58:55.728Z,53.04
2022-10-03T16:01:46.835Z,53.02
2022-10-03T16:04:22.465Z,52.99
2022-10-03T16:07:17.463Z,52.77
2022-10-03T16:09:53.548Z,52.95
2022-10-03T16:12:36.307Z,53.04
2022-10-03T16:15:24.177Z,53.25
2022-10-03T16:17:56.898Z,53.63
2022-10-03T16:20:38.203Z,53.72
2022-10-03T16:23:24.828Z,54.52
2022-10-03T16:26:00.769Z,54.97
2022-10-03T16:29:10.850Z,55.18
2022-10-03T16:31:50.889Z,55.40
2022-10-03T16:34:20.643Z,55.88
2022-10-03T16:36:50.274Z,56.35
2022-10-03T16:39:39.952Z,56.87
2022-10-03T16:42:20.507Z,57.17
2022-10-03T16:44:55.686Z,57.36
2022-10-03T16:47:34.877Z,57.58
2022-10-03T16:50:21.174Z,57.32
2022-10-03T16:52:53.118Z,57.19
2022-10-03T16:55:28.994Z,57.35
2022-10-03T16:58:15.014Z,57.29
2022-10-03T17:01:26.009Z,57.96
2022-10-03T17:03:57.180Z,58.19
2022-10-03T17:06:30.345Z,58.64
2022-10-03T17:09:02.607Z,60.56
2022-10-03T17:11:35.289Z,61.52
2022-10-03T17:14:07.183Z,62.74
2022-10-03T17:16:51.283Z,64.15
2022-10-03T17:19:42.914Z,65.41
2022-10-03T17:22:20.219Z,65.49
2022-10-03T17:25:02.834Z,66.92
2022-10-03T17:27:32.769Z,67.75
2022-10-03T17:30:05.139Z,67.95
2022-10-03T17:32:45.292Z,68.69
2022-10-03T17:35:38.264Z,69.46
2022-10-03T17:38:44.387Z,69.47
2022-10-03T17:41:19.881Z,70.11
2022-10-03T17:44:12.481Z,70.39
2022-10-03T17:46:51.052Z,70.26
2022-10-03T17:49:31.897Z,70.67
2022-10-03T17:51:59.638Z,70.66
2022-10-03T17:54:36.138Z,70.94
2022-10-03T17:57:23.797Z,71.33
2022-10-03T18:00:00.611Z,71.26
2022-10-03T18:03:03.393Z,71.91
2022-10-03T18:05:38.381Z,71.34
2022-10-03T18:08:11.844Z,70.81
2022-10-03T18:10:46.806Z,70.87
2022-10-03T18:13:31.650Z,70.83
2022-10-03T18:16:34.342Z,70.42
2022-10-03T18:19:01.450Z,70.18
2022-10-03T18:21:43.332Z,70.03
2022-10-03T18:24:25.487Z,69.89
2022-10-03T18:27:11.930Z,70.19
2022-10-03T18:29:38.739Z,69.58
2022-10-03T18:32:19.057Z,69.28
2022-10-03T18:35:03.215Z,69.22
2022-10-03T18:37:30.102Z,69.04
2022-10-03T18:39:59.461Z,69.18
2022-10-03T18:42:30.083Z,69.60
2022-10-03T18:44:59.037Z,69.33
2022-10-03T18:47:44.905Z,69.54
2022-10-03T18:51:05.968Z,69.69
2022-10-03T18:53:41.082Z,69.44
2022-10-03T18:56:13.798Z,69.63
2022-10-03T18:59:10.212Z,69.66
2022-10-03T19:01:53.279Z,70.08
2022-10-03T19:04:29.925Z,70.58
2022-10-03T19:06:58.765Z,70.34
2022-10-03T19:10:04.336Z,70.68
2022-10-03T19:12:39.271Z,70.29
2022-10-03T19:15:22.521Z,70.71
2022-10-03T19:18:08.238Z,71.16
2022-10-03T19:20:43.914Z,71.05
2022-10-03T19:23:39.775Z,71.38
2022-10-03T19:26:13.051Z,71.76
2022-10-03T19:28:46.996Z,72.69
2022-10-03T19:31:22.702Z,73.00
2022-10-03T19:33:53.345Z,73.04
2022-10-03T19:36:24.996Z,73.16
2022-10-03T19:38:53.460Z,73.47
2022-10-03T19:41:28.311Z,73.34
2022-10-03T19:43:57.982Z,74.10
2022-10-03T19:46:46.658Z,73.99
2022-10-03T19:49:44.695Z,74.24
2022-10-03T19:52:34.446Z,74.17
2022-10-03T19:55:27.090Z,74.03
2022-10-03T19:58:01.890Z,73.91
2022-10-03T20:00:33.123Z,73.70
2022-10-03T20:03:32.467Z,74.15
2022-10-03T20:06:26.938Z,74.15
2022-10-03T20:08:59.887Z,74.43
2022-10-03T20:11:44.626Z,74.09
2022-10-03T20:14:27.399Z,74.70
2022-10-03T20:17:03.477Z,74.67
2022-10-03T20:19:57.619Z,75.31
2022-10-03T20:22:27.563Z,75.27
2022-10-03T20:24:54.997Z,75.23
2022-10-03T20:27:36.015Z,75.30
2022-10-03T20:30:05.986Z,75.23
2022-10-03T20:32:37.674Z,75.54
2022-10-03T20:35:05.849Z,75.55
2022-10-03T20:37:47.552Z,75.73
2022-10-03T20:40:44.443Z,75.89
2022-10-03T20:43:59.157Z,75.83
2022-10-03T20:46:46.217Z,76.15
2022-10-03T20:49:18.899Z,75.98
2022-10-03T20:51:55.075Z,76.31
2022-10-03T20:54:25.038Z,75.92
2022-10-03T20:57:03.933Z,75.77
2022-10-03T20:59:38.114Z,75.50
2022-10-03T21:02:15.567Z,75.63
2022-10-03T21:04:57.674Z,76.06
2022-10-03T21:07:37.732Z,75.83
2022-10-03T21:10:16.664Z,75.78
2022-10-03T21:12:58.018Z,75.87
2022-10-03T21:15:54.006Z,76.07
2022-10-03T21:18:37.118Z,76.05
2022-10-03T21:21:23.891Z,76.27
2022-10-03T21:23:57.530Z,76.26
2022-10-03T21:26:29.741Z,76.25
2022-10-03T21:29:30.870Z,75.85
2022-10-03T21:32:28.842Z,75.59
2022-10-03T21:34:58.634Z,75.84
2022-10-03T21:37:37.678Z,75.62
2022-10-03T21:40:16.698Z,75.25
2022-10-03T21:43:11.641Z,74.99
2022-10-03T21:46:10.597Z,74.92
2022-10-03T21:49:08.489Z,75.30
2022-10-03T21:52:00.717Z,75.02
2022-10-03T21:54:44.835Z,74.82
2022-10-03T21:57:31.453Z,74.85
2022-10-03T22:00:28.726Z,74.93
2022-10-03T22:03:11.576Z,75.18
2022-10-03T22:06:03.325Z,74.87
2022-10-03T22:08:33.288Z,75.11
2022-10-03T22:11:06.009Z,74.98
2022-10-03T22:13:44.856Z,74.94
2022-10-03T22:16:44.338Z,74.89
2022-10-03T22:19:29.631Z,75.22
2022-10-03T22:21:59.372Z,75.32
2022-10-03T22:24:38.618Z,75.49
2022-10-03T22:27:33.122Z,75.89
2022-10-03T22:30:07.762Z,75.90
2022-10-03T22:32:47.690Z,76.15
2022-10-03T22:35:23.850Z,76.58
2022-10-03T22:37:51.393Z,76.42
2022-10-03T22:40:18.852Z,76.39
2022-10-03T22:42:53.011Z,76.74
2022-10-03T22:45:21.588Z,76.86
2022-10-03T22:47:53.542Z,76.10
2022-10-03T22:50:25.036Z,76.81
2022-10-03T22:52:52.802Z,77.01
2022-10-03T22:55:24.774Z,77.23
2022-10-03T22:57:54.243Z,77.38
2022-10-03T23:00:29.028Z,77.60
2022-10-03T23:03:11.248Z,77.36
2022-10-03T23:05:56.756Z,77.77
2022-10-03T23:09:04.157Z,78.34
2022-10-03T23:11:34.657Z,78.65
2022-10-03T23:14:13.445Z,78.58
2022-10-03T23:16:59.020Z,79.25
2022-10-03T23:20:20.298Z,79.54
2022-10-03T23:22:52.770Z,79.16
2022-10-03T23:25:26.295Z,79.52
2022-10-03T23:27:59.452Z,79.21
2022-10-03T23:30:45.728Z,78.90
2022-10-03T23:33:38.806Z,79.04
2022-10-03T23:36:21.047Z,78.71
2022-10-03T23:38:53.901Z,78.83
2022-10-03T23:41:42.697Z,78.82
2022-10-03T23:44:34.920Z,78.93
2022-10-03T23:47:05.032Z,78.18
2022-10-03T23:49:33.529Z,78.27
2022-10-03T23:52:00.618Z,78.58
2022-10-03T23:54:28.923Z,78.39
2022-10-03T23:57:06.515Z,78.38
2022-10-03T23:59:37.491Z,78.46
